Time;durP1;ratioP1;P1;durP2;ratioP2;P2;SDS_P1;SDS_P2;PMS_P1;PMS_P2;Temp;Humidity;BMP_temperature;BMP_pressure;BME280_temperature;BME280_humidity;BME280_pressure;Samples;Min_cycle;Max_cycle;Signal;HPM_P1;HPM_P2
2023/06/06 00:00:10;;;;;;;16.33;14.73;;;12.80;79.70;;;;;;5013306;28;20173;-86
2023/06/06 00:02:42;;;;;;;17.37;14.63;;;12.70;79.80;;;;;;5011341;28;20197;-86
2023/06/06 00:05:08;;;;;;;15.60;13.70;;;12.60;80.90;;;;;;5012104;28;20564;-86
2023/06/06 00:07:35;;;;;;;15.87;14.47;;;12.40;81.90;;;;;;5012129;28;20181;-85
2023/06/06 00:10:04;;;;;;;17.13;15.50;;;12.40;81.90;;;;;;5013279;28;20640;-86
2023/06/06 00:12:32;;;;;;;24.13;14.67;;;12.40;82.00;;;;;;5012012;28;20594;-86
2023/06/06 00:14:59;;;;;;;18.20;15.53;;;12.30;82.30;;;;;;5013135;28;20205;-86
2023/06/06 00:17:25;;;;;;;16.73;15.20;;;12.40;82.20;;;;;;5013137;28;20170;-86
2023/06/06 00:19:52;;;;;;;17.37;15.17;;;12.50;81.80;;;;;;5013162;28;20166;-84
2023/06/06 00:22:23;;;;;;;18.53;14.60;;;12.40;81.80;;;;;;5011828;28;20328;-85
2023/06/06 00:24:49;;;;;;;14.77;13.20;;;12.30;82.50;;;;;;5013112;28;20527;-85
2023/06/06 00:27:15;;;;;;;15.70;14.33;;;12.20;82.80;;;;;;5011872;28;20559;-86
2023/06/06 00:29:40;;;;;;;15.43;14.13;;;12.20;83.00;;;;;;5013048;28;20197;-86
2023/06/06 00:32:06;;;;;;;15.63;14.03;;;12.00;83.10;;;;;;5013131;28;20197;-86
2023/06/06 00:34:31;;;;;;;17.23;15.63;;;12.00;83.30;;;;;;5012918;28;20212;-86
2023/06/06 00:36:57;;;;;;;16.53;15.07;;;12.00;83.30;;;;;;5012923;28;20548;-86
2023/06/06 00:39:23;;;;;;;15.00;13.83;;;12.00;83.10;;;;;;5011734;28;20551;-86
2023/06/06 00:41:48;;;;;;;17.77;16.07;;;12.10;82.60;;;;;;5011725;28;20236;-86
2023/06/06 00:44:14;;;;;;;20.60;15.93;;;12.20;82.20;;;;;;5013108;28;20181;-86
2023/06/06 00:46:41;;;;;;;16.47;15.03;;;12.20;81.80;;;;;;5011763;28;20173;-86
2023/06/06 00:49:10;;;;;;;17.23;15.50;;;12.20;81.70;;;;;;5012889;28;20173;-86
2023/06/06 00:51:37;;;;;;;16.00;14.50;;;12.20;81.50;;;;;;5011490;28;20182;-85
2023/06/06 00:54:02;;;;;;;17.50;15.67;;;12.20;81.30;;;;;;5012795;28;20540;-86
2023/06/06 00:56:29;;;;;;;16.13;14.60;;;12.20;81.10;;;;;;5012835;28;20260;-86
2023/06/06 00:58:57;;;;;;;16.13;14.27;;;12.10;80.90;;;;;;5011644;28;20257;-86
2023/06/06 01:01:28;;;;;;;16.17;14.60;;;12.00;80.60;;;;;;5011439;28;20264;-85
2023/06/06 01:03:56;;;;;;;17.60;15.90;;;11.90;80.80;;;;;;5012761;28;20172;-86
2023/06/06 01:06:22;;;;;;;16.50;15.10;;;11.90;80.80;;;;;;5012984;28;20248;-86
2023/06/06 01:08:48;;;;;;;17.47;15.77;;;11.70;81.70;;;;;;5011483;28;20174;-86
2023/06/06 01:11:26;;;;;;;17.30;15.60;;;11.70;82.30;;;;;;5012650;28;20231;-86
2023/06/06 01:14:03;;;;;;;17.40;14.70;;;11.70;82.20;;;;;;5013703;28;20236;-86
2023/06/06 01:16:33;;;;;;;17.33;15.63;;;11.60;82.30;;;;;;5016236;28;20242;-86
2023/06/06 01:19:01;;;;;;;16.63;14.93;;;11.60;82.30;;;;;;5014888;28;20173;-86
2023/06/06 01:21:44;;;;;;;16.77;15.00;;;11.60;82.50;;;;;;5015985;28;20166;-85
2023/06/06 01:24:09;;;;;;;20.40;14.23;;;11.60;82.70;;;;;;5014695;28;20181;-86
2023/06/06 01:26:35;;;;;;;16.80;14.00;;;11.60;82.60;;;;;;5015845;28;20699;-86
2023/06/06 01:29:01;;;;;;;15.67;14.17;;;11.60;82.40;;;;;;5014646;28;20181;-86
2023/06/06 01:31:35;;;;;;;16.00;14.30;;;11.60;83.10;;;;;;5015754;28;20240;-86
2023/06/06 01:34:26;;;;;;;15.93;14.43;;;11.60;83.40;;;;;;5014630;28;20265;-86
2023/06/06 01:37:02;;;;;;;16.57;14.10;;;11.60;83.30;;;;;;5014022;28;20181;-86
2023/06/06 01:39:31;;;;;;;14.97;13.40;;;11.60;83.20;;;;;;5015630;28;20173;-86
2023/06/06 01:41:58;;;;;;;17.07;15.43;;;11.50;83.80;;;;;;5015618;28;20216;-85
2023/06/06 01:44:25;;;;;;;16.70;13.37;;;11.60;84.20;;;;;;5015512;28;20185;-86
2023/06/06 01:46:52;;;;;;;24.17;14.23;;;11.60;84.10;;;;;;5014317;28;20636;-85
2023/06/06 01:49:18;;;;;;;18.50;13.83;;;11.60;84.10;;;;;;5014385;28;20193;-86
2023/06/06 01:51:44;;;;;;;15.73;12.77;;;11.60;84.10;;;;;;5014237;28;20284;-85
2023/06/06 01:54:10;;;;;;;16.80;13.73;;;11.60;83.90;;;;;;5014120;28;20292;-86
2023/06/06 01:56:35;;;;;;;17.03;14.53;;;11.60;83.80;;;;;;5015322;28;20178;-86
2023/06/06 01:59:01;;;;;;;18.23;14.30;;;11.60;83.90;;;;;;5015179;28;20172;-86
2023/06/06 02:01:28;;;;;;;16.23;14.63;;;11.60;84.10;;;;;;5014414;28;20687;-86
2023/06/06 02:03:54;;;;;;;15.50;14.00;;;11.50;84.30;;;;;;5015485;28;20257;-86
2023/06/06 02:06:20;;;;;;;15.50;13.73;;;11.50;84.30;;;;;;5014111;28;20236;-85
2023/06/06 02:08:47;;;;;;;14.57;12.43;;;11.50;84.50;;;;;;5015118;28;20177;-86
2023/06/06 02:11:13;;;;;;;15.50;13.30;;;11.50;84.50;;;;;;5015110;28;20173;-86
2023/06/06 02:13:38;;;;;;;16.80;15.00;;;11.40;84.30;;;;;;5013544;28;20658;-85
2023/06/06 02:16:04;;;;;;;16.20;13.47;;;11.30;84.30;;;;;;5014985;28;20201;-86
2023/06/06 02:18:30;;;;;;;19.63;13.50;;;11.30;84.30;;;;;;5013712;28;20670;-86
2023/06/06 02:20:55;;;;;;;14.63;13.17;;;11.30;84.30;;;;;;5013695;28;20253;-85
2023/06/06 02:23:21;;;;;;;14.47;12.03;;;11.30;84.20;;;;;;5013577;28;20186;-86
2023/06/06 02:25:48;;;;;;;15.60;14.00;;;11.30;84.10;;;;;;5012902;28;20651;-86
2023/06/06 02:28:14;;;;;;;14.80;13.20;;;11.20;84.10;;;;;;5013460;28;20185;-86
2023/06/06 02:30:40;;;;;;;15.80;13.30;;;11.20;84.50;;;;;;5013431;28;20572;-86
2023/06/06 02:33:06;;;;;;;13.27;12.07;;;11.10;84.50;;;;;;5014614;28;20201;-86
2023/06/06 02:35:31;;;;;;;15.50;12.23;;;11.10;84.30;;;;;;5014138;28;20221;-86
2023/06/06 02:37:57;;;;;;;14.00;12.57;;;11.10;84.20;;;;;;5013375;28;20378;-86
2023/06/06 02:40:23;;;;;;;16.47;13.60;;;11.00;84.20;;;;;;5013244;28;20187;-86
2023/06/06 02:42:48;;;;;;;21.00;14.77;;;11.00;84.20;;;;;;5013238;28;20356;-85
2023/06/06 02:45:14;;;;;;;18.50;14.00;;;11.00;84.30;;;;;;5014737;28;20186;-86
2023/06/06 02:47:40;;;;;;;18.07;13.80;;;11.00;84.30;;;;;;5014357;28;20170;-85
2023/06/06 02:50:06;;;;;;;22.47;15.17;;;11.00;84.50;;;;;;5013292;28;20260;-86
2023/06/06 02:52:32;;;;;;;15.67;14.13;;;11.00;84.50;;;;;;5014397;28;20251;-86
2023/06/06 02:54:58;;;;;;;17.47;13.63;;;11.00;84.70;;;;;;5012931;28;20209;-86
2023/06/06 02:57:24;;;;;;;15.57;13.77;;;11.00;85.00;;;;;;5014359;28;20534;-85
2023/06/06 02:59:50;;;;;;;16.20;14.23;;;11.00;85.10;;;;;;5012926;28;20169;-86
2023/06/06 03:02:16;;;;;;;17.00;13.47;;;10.90;85.30;;;;;;5012817;28;20201;-85
2023/06/06 03:04:46;;;;;;;19.50;14.20;;;10.90;85.40;;;;;;5012899;28;20177;-86
2023/06/06 03:07:12;;;;;;;23.70;14.40;;;10.90;85.60;;;;;;5012878;28;20690;-85
2023/06/06 03:09:38;;;;;;;16.83;14.53;;;10.80;86.00;;;;;;5012934;28;20212;-85
2023/06/06 03:12:04;;;;;;;17.93;14.50;;;10.90;86.10;;;;;;5013927;28;20671;-85
2023/06/06 03:14:30;;;;;;;19.37;14.47;;;11.00;86.20;;;;;;5012610;28;20288;-86
2023/06/06 03:16:56;;;;;;;14.70;13.13;;;11.10;86.50;;;;;;5013853;28;20171;-85
2023/06/06 03:19:25;;;;;;;15.97;13.67;;;11.20;86.20;;;;;;5012625;28;20224;-85
2023/06/06 03:21:51;;;;;;;16.37;12.97;;;11.30;85.80;;;;;;5012548;28;20545;-85
2023/06/06 03:24:17;;;;;;;15.60;12.23;;;11.30;85.50;;;;;;5014010;28;20173;-85
2023/06/06 03:26:46;;;;;;;13.50;12.13;;;11.30;85.20;;;;;;5012394;28;20173;-85
2023/06/06 03:29:13;;;;;;;18.03;12.57;;;11.20;84.80;;;;;;5013756;28;20185;-85
2023/06/06 03:31:39;;;;;;;14.63;12.80;;;11.20;84.30;;;;;;5013566;28;20189;-85
2023/06/06 03:34:04;;;;;;;19.17;12.97;;;11.10;84.40;;;;;;5013668;28;20265;-85
2023/06/06 03:36:33;;;;;;;16.10;13.50;;;11.10;84.40;;;;;;5012160;28;20276;-85
2023/06/06 03:39:00;;;;;;;15.00;12.93;;;11.10;84.40;;;;;;5013128;28;20170;-85
2023/06/06 03:41:25;;;;;;;15.00;12.67;;;11.20;84.30;;;;;;5012121;28;20173;-85
2023/06/06 03:43:51;;;;;;;16.33;12.93;;;11.30;84.10;;;;;;5012314;28;20654;-85
2023/06/06 03:46:17;;;;;;;15.23;12.90;;;11.30;83.90;;;;;;5012222;28;20656;-85
2023/06/06 03:48:42;;;;;;;17.37;13.50;;;11.50;83.90;;;;;;5013661;28;20172;-86
2023/06/06 03:51:08;;;;;;;13.00;11.60;;;11.70;83.80;;;;;;5018857;28;20197;-86
2023/06/06 03:53:33;;;;;;;15.47;13.03;;;11.80;83.70;;;;;;5012413;28;20197;-86
2023/06/06 03:55:59;;;;;;;19.83;12.97;;;11.80;83.50;;;;;;5012467;28;20263;-86
2023/06/06 03:58:25;;;;;;;24.17;13.10;;;11.90;83.40;;;;;;5012434;28;20181;-86
2023/06/06 04:00:51;;;;;;;18.10;12.53;;;12.00;83.10;;;;;;5012268;28;20196;-85
2023/06/06 04:03:17;;;;;;;19.87;11.80;;;12.00;82.90;;;;;;5012079;28;20284;-86
2023/06/06 04:05:44;;;;;;;15.63;13.27;;;12.20;82.90;;;;;;5013494;28;20609;-86
2023/06/06 04:08:10;;;;;;;15.03;12.53;;;12.10;82.90;;;;;;5013509;28;20256;-86
2023/06/06 04:10:36;;;;;;;16.50;12.47;;;12.20;83.00;;;;;;5012278;28;20264;-86
2023/06/06 04:13:02;;;;;;;18.23;12.80;;;12.30;82.80;;;;;;5013250;28;20263;-86
2023/06/06 04:15:28;;;;;;;14.77;11.73;;;12.40;82.50;;;;;;5012982;28;20653;-86
2023/06/06 04:17:54;;;;;;;18.10;12.00;;;12.50;82.30;;;;;;5013568;28;20208;-86
2023/06/06 04:20:19;;;;;;;16.13;12.03;;;12.40;82.20;;;;;;5012000;28;20639;-86
2023/06/06 04:22:45;;;;;;;13.20;11.30;;;12.40;82.20;;;;;;5013311;28;20200;-86
2023/06/06 04:25:14;;;;;;;19.47;12.27;;;12.50;82.20;;;;;;5012340;28;20173;-86
2023/06/06 04:27:40;;;;;;;20.17;13.40;;;12.40;82.10;;;;;;5013582;28;20236;-85
2023/06/06 04:30:06;;;;;;;15.67;13.87;;;12.40;82.40;;;;;;5013336;28;20220;-86
2023/06/06 04:32:32;;;;;;;19.27;12.83;;;12.30;82.90;;;;;;5013089;28;20215;-86
2023/06/06 04:34:58;;;;;;;22.93;14.10;;;12.30;83.40;;;;;;5013196;28;20197;-86
2023/06/06 04:37:25;;;;;;;21.97;14.10;;;12.30;83.70;;;;;;5011962;28;20169;-86
2023/06/06 04:39:53;;;;;;;21.93;14.97;;;12.30;84.00;;;;;;5011935;28;20178;-86
2023/06/06 04:42:20;;;;;;;22.90;14.67;;;12.30;84.40;;;;;;5011964;28;20204;-86
2023/06/06 04:44:46;;;;;;;18.20;13.63;;;12.20;84.70;;;;;;5012960;28;20177;-86
2023/06/06 04:47:14;;;;;;;19.40;14.23;;;12.10;85.20;;;;;;5013089;28;20232;-86
2023/06/06 04:49:40;;;;;;;20.70;14.13;;;12.10;85.60;;;;;;5015471;28;20192;-86
2023/06/06 04:52:12;;;;;;;19.73;14.43;;;12.10;85.90;;;;;;5016645;28;20229;-86
2023/06/06 04:54:39;;;;;;;17.87;13.10;;;12.00;86.10;;;;;;5015526;28;20212;-86
2023/06/06 04:57:06;;;;;;;25.47;15.13;;;12.00;86.20;;;;;;5016842;28;20165;-86
2023/06/06 04:59:33;;;;;;;19.17;14.00;;;12.00;86.50;;;;;;5015600;28;20173;-85
2023/06/06 05:02:01;;;;;;;17.77;13.50;;;12.00;86.60;;;;;;5016778;28;20185;-86
2023/06/06 05:04:29;;;;;;;19.17;12.60;;;12.10;86.60;;;;;;5015384;28;20200;-86
2023/06/06 05:06:58;;;;;;;19.53;13.20;;;12.10;86.70;;;;;;5015392;28;20184;-86
2023/06/06 05:09:24;;;;;;;18.97;13.50;;;12.20;86.70;;;;;;5015154;28;20174;-86
2023/06/06 05:11:52;;;;;;;23.87;12.07;;;12.20;86.50;;;;;;5014904;28;20201;-86
2023/06/06 05:14:23;;;;;;;24.33;13.97;;;12.20;86.60;;;;;;5016405;28;20383;-86
2023/06/06 05:16:58;;;;;;;22.80;13.90;;;12.20;86.50;;;;;;5015082;28;20208;-86
2023/06/06 05:19:23;;;;;;;19.87;12.93;;;12.30;86.60;;;;;;5016337;28;20164;-86
2023/06/06 05:21:49;;;;;;;23.63;13.77;;;12.40;86.50;;;;;;5014876;28;20193;-86
2023/06/06 05:24:15;;;;;;;19.70;12.73;;;12.50;86.60;;;;;;5015583;28;20188;-86
2023/06/06 05:26:44;;;;;;;22.87;12.87;;;12.60;86.60;;;;;;5014968;28;20177;-86
2023/06/06 05:29:09;;;;;;;18.37;13.10;;;12.70;86.50;;;;;;5015385;28;20185;-86
2023/06/06 05:31:35;;;;;;;18.67;12.97;;;12.70;86.40;;;;;;5014821;28;20587;-86
2023/06/06 05:34:01;;;;;;;23.07;12.60;;;12.80;86.40;;;;;;5016219;28;20224;-86
2023/06/06 05:36:27;;;;;;;18.00;12.23;;;12.90;86.30;;;;;;5016065;28;20603;-86
2023/06/06 05:38:52;;;;;;;21.40;12.87;;;13.10;86.10;;;;;;5014617;28;20184;-85
2023/06/06 05:41:19;;;;;;;24.43;13.03;;;13.10;85.90;;;;;;5015673;28;20632;-86
2023/06/06 05:43:45;;;;;;;17.20;12.93;;;13.20;85.90;;;;;;5015661;28;20239;-86
2023/06/06 05:46:11;;;;;;;13.93;12.40;;;13.30;85.90;;;;;;5014349;28;20178;-85
2023/06/06 05:48:37;;;;;;;18.07;13.50;;;13.40;85.60;;;;;;5015583;28;20632;-86
2023/06/06 05:51:03;;;;;;;20.40;12.97;;;13.40;85.40;;;;;;5015568;28;20178;-86
2023/06/06 05:53:28;;;;;;;22.80;13.30;;;13.50;85.20;;;;;;5014176;28;20201;-86
2023/06/06 05:55:54;;;;;;;21.50;13.07;;;13.70;85.30;;;;;;5015522;28;20196;-86
2023/06/06 05:58:20;;;;;;;19.57;12.83;;;13.80;85.00;;;;;;5014199;28;20260;-86
2023/06/06 06:00:45;;;;;;;19.70;12.37;;;13.80;85.00;;;;;;5013227;28;20180;-86
2023/06/06 06:03:12;;;;;;;21.33;14.30;;;14.00;84.70;;;;;;5014118;28;20327;-86
2023/06/06 06:05:38;;;;;;;20.67;12.87;;;14.20;84.40;;;;;;5014251;28;20772;-86
2023/06/06 06:08:04;;;;;;;20.43;13.47;;;14.30;84.40;;;;;;5014006;28;20327;-86
2023/06/06 06:10:37;;;;;;;18.87;12.83;;;14.40;84.10;;;;;;5013987;28;20651;-86
2023/06/06 06:13:04;;;;;;;25.85;13.15;;;14.50;84.00;;;;;;5015237;28;20301;-86
2023/06/06 06:15:30;;;;;;;18.47;13.30;;;14.50;83.80;;;;;;5013744;28;20208;-87
2023/06/06 06:17:56;;;;;;;19.00;12.45;;;14.60;83.60;;;;;;5013883;28;20173;-86
2023/06/06 06:20:22;;;;;;;18.42;13.10;;;14.80;83.60;;;;;;5013766;28;20184;-86
2023/06/06 06:22:48;;;;;;;33.22;14.00;;;14.90;83.50;;;;;;5013621;28;20205;-86
2023/06/06 06:25:16;;;;;;;22.25;13.40;;;15.00;83.30;;;;;;5013642;28;20178;-86
2023/06/06 06:27:43;;;;;;;16.67;13.32;;;15.10;83.00;;;;;;5014818;28;20174;-86
2023/06/06 06:30:10;;;;;;;16.13;13.02;;;15.20;83.00;;;;;;5013644;28;20182;-86
2023/06/06 06:32:37;;;;;;;33.40;14.40;;;15.30;82.50;;;;;;5014666;28;20209;-86
2023/06/06 06:35:04;;;;;;;28.92;14.50;;;15.30;82.20;;;;;;5013517;28;20229;-86
2023/06/06 06:37:30;;;;;;;18.70;14.45;;;15.40;82.10;;;;;;5014702;28;20177;-86
2023/06/06 06:39:57;;;;;;;18.88;12.77;;;15.50;82.00;;;;;;5013494;28;20719;-87
2023/06/06 06:42:23;;;;;;;26.75;13.98;;;15.50;81.70;;;;;;5013425;28;20675;-86
2023/06/06 06:44:49;;;;;;;23.83;14.55;;;15.60;81.70;;;;;;5013447;28;20323;-86
2023/06/06 06:47:15;;;;;;;19.98;13.80;;;15.80;81.80;;;;;;5013239;28;20189;-86
2023/06/06 06:49:41;;;;;;;22.48;13.85;;;15.80;81.10;;;;;;5013428;28;20181;-86
2023/06/06 06:52:07;;;;;;;19.58;14.18;;;15.90;81.00;;;;;;5013189;28;20201;-86
2023/06/06 06:54:35;;;;;;;24.60;14.18;;;15.90;80.30;;;;;;5013225;28;20201;-86
2023/06/06 06:57:01;;;;;;;20.33;13.68;;;16.00;80.50;;;;;;5014669;28;20165;-87
2023/06/06 06:59:28;;;;;;;20.23;13.75;;;15.80;80.50;;;;;;5013068;28;20671;-86
2023/06/06 07:01:53;;;;;;;19.13;12.85;;;16.00;80.80;;;;;;5014134;28;20675;-86
2023/06/06 07:04:19;;;;;;;20.05;12.73;;;16.00;81.00;;;;;;5014358;28;20173;-86
2023/06/06 07:06:46;;;;;;;18.88;12.93;;;16.30;81.30;;;;;;5013010;28;20260;-87
2023/06/06 07:09:13;;;;;;;19.05;13.13;;;16.40;80.50;;;;;;5012845;28;20544;-87
2023/06/06 07:11:38;;;;;;;20.90;14.23;;;16.60;80.20;;;;;;5012612;28;20272;-86
2023/06/06 07:14:04;;;;;;;18.92;14.75;;;16.70;79.40;;;;;;5012733;28;20601;-86
2023/06/06 07:16:31;;;;;;;18.15;12.52;;;16.90;79.80;;;;;;5013939;28;20538;-86
2023/06/06 07:18:56;;;;;;;23.45;13.40;;;17.00;79.00;;;;;;5013976;28;20662;-87
2023/06/06 07:21:22;;;;;;;18.55;12.88;;;16.80;78.20;;;;;;5012721;28;20178;-86
2023/06/06 07:23:49;;;;;;;15.90;12.52;;;16.90;79.20;;;;;;5013945;28;20197;-86
2023/06/06 07:26:16;;;;;;;17.50;12.35;;;17.10;79.20;;;;;;5012543;28;20174;-87
2023/06/06 07:28:43;;;;;;;20.23;13.18;;;17.20;78.90;;;;;;5013931;28;20288;-87
2023/06/06 07:31:08;;;;;;;22.48;12.98;;;17.40;78.30;;;;;;5013707;28;20227;-86
2023/06/06 07:33:35;;;;;;;16.27;13.02;;;17.50;78.10;;;;;;5012382;28;20200;-87
2023/06/06 07:36:00;;;;;;;16.08;13.07;;;17.70;76.90;;;;;;5013889;28;20200;-86
2023/06/06 07:38:26;;;;;;;20.75;13.05;;;17.70;76.90;;;;;;5013883;28;20170;-87
2023/06/06 07:40:51;;;;;;;18.77;13.23;;;17.80;77.20;;;;;;5012421;28;20212;-87
2023/06/06 07:43:17;;;;;;;16.83;12.57;;;17.80;77.20;;;;;;5013436;28;20196;-86
2023/06/06 07:45:42;;;;;;;23.38;12.50;;;17.80;76.80;;;;;;5012288;28;20173;-87
2023/06/06 07:48:08;;;;;;;16.48;11.93;;;18.10;76.60;;;;;;5012293;28;20185;-86
2023/06/06 07:50:34;;;;;;;20.80;13.30;;;18.10;75.40;;;;;;5012151;28;20177;-87
2023/06/06 07:53:00;;;;;;;16.77;12.30;;;18.20;75.10;;;;;;5012292;28;20197;-87
2023/06/06 07:55:26;;;;;;;14.65;12.23;;;18.30;75.20;;;;;;5013367;28;20700;-87
2023/06/06 07:57:53;;;;;;;15.30;13.15;;;18.30;74.10;;;;;;5013622;28;20540;-86
2023/06/06 08:00:19;;;;;;;19.13;11.98;;;18.30;75.00;;;;;;5012061;28;20177;-87
2023/06/06 08:02:44;;;;;;;18.30;12.23;;;18.40;74.60;;;;;;5012641;28;20208;-87
2023/06/06 08:05:11;;;;;;;23.60;13.35;;;18.60;74.70;;;;;;5012143;28;20235;-87
2023/06/06 08:07:38;;;;;;;19.20;12.52;;;18.80;73.40;;;;;;5013287;28;20304;-87
2023/06/06 08:10:06;;;;;;;16.85;12.90;;;18.80;73.50;;;;;;5013274;28;20169;-87
2023/06/06 08:12:32;;;;;;;15.57;12.30;;;18.90;71.90;;;;;;5011838;28;20217;-87
2023/06/06 08:14:57;;;;;;;13.90;12.05;;;18.90;71.90;;;;;;5011890;28;20201;-87
2023/06/06 08:17:23;;;;;;;14.90;13.20;;;19.20;71.90;;;;;;5011922;28;20184;-87
2023/06/06 08:19:49;;;;;;;16.35;12.57;;;19.40;70.90;;;;;;5013237;28;20227;-87
2023/06/06 08:22:14;;;;;;;15.60;13.43;;;19.40;70.10;;;;;;5011820;28;20224;-86
2023/06/06 08:24:41;;;;;;;15.18;13.63;;;19.30;70.40;;;;;;5014653;28;20199;-87
2023/06/06 08:27:07;;;;;;;26.38;14.95;;;19.50;70.60;;;;;;5015938;28;20181;-87
2023/06/06 08:29:33;;;;;;;16.33;14.63;;;19.60;69.20;;;;;;5017185;28;20172;-87
2023/06/06 08:32:01;;;;;;;18.10;15.40;;;19.90;68.80;;;;;;5016314;28;20706;-86
2023/06/06 08:34:27;;;;;;;20.95;15.70;;;20.20;68.30;;;;;;5016606;28;20234;-87
2023/06/06 08:36:53;;;;;;;17.75;15.95;;;20.20;66.50;;;;;;5016966;28;20202;-87
2023/06/06 08:39:19;;;;;;;17.50;15.63;;;20.20;65.20;;;;;;5016994;28;20173;-87
2023/06/06 08:41:53;;;;;;;18.02;16.50;;;20.20;66.30;;;;;;5015685;28;20600;-87
2023/06/06 08:44:20;;;;;;;17.90;16.23;;;20.40;65.20;;;;;;5015633;28;20230;-87
2023/06/06 08:46:48;;;;;;;18.98;17.00;;;20.50;64.70;;;;;;5015451;28;20199;-87
2023/06/06 08:49:19;;;;;;;20.58;17.08;;;20.50;64.30;;;;;;5016644;28;20191;-87
2023/06/06 08:51:47;;;;;;;18.83;17.20;;;20.70;64.80;;;;;;5015507;28;20193;-87
2023/06/06 08:54:13;;;;;;;19.13;17.42;;;20.70;65.40;;;;;;5015308;28;20651;-87
2023/06/06 08:56:42;;;;;;;20.35;17.85;;;20.80;64.00;;;;;;5015971;28;20184;-87
2023/06/06 08:59:13;;;;;;;19.77;17.90;;;20.90;64.60;;;;;;5016645;28;20200;-87
2023/06/06 09:01:38;;;;;;;20.65;18.27;;;21.10;63.20;;;;;;5015163;28;20165;-87
2023/06/06 09:04:06;;;;;;;21.10;18.83;;;21.20;62.80;;;;;;5015242;28;20227;-87
2023/06/06 09:06:34;;;;;;;20.52;18.38;;;21.40;63.70;;;;;;5016115;28;20181;-87
2023/06/06 09:09:01;;;;;;;19.27;17.50;;;21.50;63.30;;;;;;5015371;28;20181;-87
2023/06/06 09:11:27;;;;;;;19.60;17.65;;;21.50;62.10;;;;;;5017382;28;20181;-88
2023/06/06 09:13:52;;;;;;;18.13;16.40;;;21.40;62.70;;;;;;5016325;28;20185;-87
2023/06/06 09:16:18;;;;;;;20.27;15.68;;;21.60;63.20;;;;;;5015033;28;20209;-88
2023/06/06 09:18:44;;;;;;;16.88;15.40;;;21.70;61.30;;;;;;5015066;28;20283;-87
2023/06/06 09:21:12;;;;;;;18.98;16.20;;;21.70;61.10;;;;;;5016222;28;20212;-88
2023/06/06 09:23:38;;;;;;;22.83;17.02;;;21.60;60.60;;;;;;5014789;28;20567;-88
2023/06/06 09:26:17;;;;;;;17.55;15.70;;;21.80;63.00;;;;;;5014899;28;20185;-88
2023/06/06 09:28:43;;;;;;;18.48;16.60;;;22.20;63.60;;;;;;5014782;28;20173;-88
2023/06/06 09:31:23;;;;;;;22.85;16.15;;;22.40;63.00;;;;;;5015287;28;20177;-88
2023/06/06 09:33:50;;;;;;;18.20;16.33;;;22.60;61.50;;;;;;5014626;28;20181;-87
2023/06/06 09:36:18;;;;;;;18.92;17.02;;;22.70;62.20;;;;;;5014600;28;20201;-88
2023/06/06 09:38:43;;;;;;;18.60;16.63;;;22.70;61.30;;;;;;5014596;28;20235;-88
2023/06/06 09:41:09;;;;;;;18.00;16.30;;;22.50;61.60;;;;;;5015822;28;20643;-88
2023/06/06 09:43:37;;;;;;;20.17;16.98;;;22.50;64.20;;;;;;5014669;28;20601;-88
2023/06/06 09:46:05;;;;;;;27.10;18.02;;;22.70;63.30;;;;;;5014419;28;20647;-88
2023/06/06 09:48:31;;;;;;;19.15;17.17;;;22.50;61.10;;;;;;5014343;28;20181;-88
2023/06/06 09:50:57;;;;;;;19.48;17.35;;;22.70;62.80;;;;;;5014268;28;20184;-87
2023/06/06 09:53:27;;;;;;;18.50;16.90;;;22.90;61.40;;;;;;5014132;28;20264;-87
2023/06/06 09:55:55;;;;;;;17.75;16.25;;;23.20;61.60;;;;;;5015489;28;20201;-88
2023/06/06 09:58:22;;;;;;;19.33;17.55;;;23.50;58.80;;;;;;5014357;28;20174;-88
2023/06/06 10:00:48;;;;;;;19.77;18.00;;;23.50;60.00;;;;;;5015575;28;20253;-87
2023/06/06 10:03:22;;;;;;;20.02;16.98;;;23.00;60.80;;;;;;5014066;28;20204;-87
2023/06/06 10:05:49;;;;;;;22.60;18.45;;;23.10;61.70;;;;;;5014227;28;20177;-87
2023/06/06 10:08:17;;;;;;;19.77;17.42;;;23.20;61.00;;;;;;5015324;28;20640;-87
2023/06/06 10:10:45;;;;;;;18.80;16.92;;;23.30;60.00;;;;;;5015285;28;20647;-87
2023/06/06 10:13:12;;;;;;;19.60;17.58;;;23.10;61.70;;;;;;5015045;28;20204;-87
2023/06/06 10:15:39;;;;;;;21.20;16.88;;;23.20;61.50;;;;;;5015061;28;20322;-88
2023/06/06 10:18:05;;;;;;;19.85;17.95;;;23.30;59.40;;;;;;5013851;28;20184;-88
2023/06/06 10:20:31;;;;;;;20.55;18.58;;;23.70;60.00;;;;;;5013880;28;20180;-87
2023/06/06 10:23:02;;;;;;;19.92;17.88;;;23.30;61.00;;;;;;5013822;28;20315;-87
2023/06/06 10:25:28;;;;;;;20.00;17.88;;;23.60;61.10;;;;;;5013680;28;20173;-87
2023/06/06 10:28:09;;;;;;;18.20;16.33;;;23.30;61.30;;;;;;5014834;28;20260;-87
2023/06/06 10:30:42;;;;;;;21.20;19.20;;;23.70;57.80;;;;;;5015128;28;20161;-87
2023/06/06 10:33:23;;;;;;;19.67;18.00;;;23.70;59.60;;;;;;5013606;28;20385;-87
2023/06/06 10:35:54;;;;;;;21.08;17.38;;;23.70;63.40;;;;;;5014633;28;20193;-87
2023/06/06 10:38:19;;;;;;;19.27;17.38;;;23.90;60.50;;;;;;5013549;28;20196;-87
2023/06/06 10:40:50;;;;;;;20.75;17.02;;;23.80;58.50;;;;;;5013357;28;20174;-87
2023/06/06 10:43:19;;;;;;;18.23;16.50;;;23.90;57.50;;;;;;5013300;28;20216;-87
2023/06/06 10:45:49;;;;;;;19.08;17.15;;;24.30;59.10;;;;;;5014441;28;20174;-87
2023/06/06 10:48:14;;;;;;;18.60;16.88;;;24.50;56.90;;;;;;5014311;28;20548;-87
2023/06/06 10:50:53;;;;;;;20.17;18.38;;;24.30;57.60;;;;;;5013237;28;20181;-87
2023/06/06 10:53:19;;;;;;;21.85;18.23;;;24.10;57.60;;;;;;5013094;28;20196;-87
2023/06/06 10:55:45;;;;;;;20.08;17.95;;;23.70;59.90;;;;;;5014569;28;20539;-87
2023/06/06 10:58:13;;;;;;;26.35;18.02;;;23.40;60.00;;;;;;5014292;28;20170;-87
2023/06/06 11:00:41;;;;;;;19.80;17.92;;;23.90;59.80;;;;;;5014253;28;20185;-87
2023/06/06 11:03:08;;;;;;;18.85;17.08;;;24.00;59.00;;;;;;5014199;28;20213;-87
2023/06/06 11:06:00;;;;;;;19.88;17.88;;;24.40;59.00;;;;;;5014186;28;20256;-87
2023/06/06 11:08:41;;;;;;;19.77;17.88;;;24.60;56.90;;;;;;5012793;28;20188;-87
2023/06/06 11:11:23;;;;;;;19.45;17.42;;;25.00;56.30;;;;;;5012916;28;20177;-87
2023/06/06 11:14:03;;;;;;;20.13;18.33;;;25.20;54.50;;;;;;5012792;28;20204;-87
2023/06/06 11:16:37;;;;;;;19.75;17.85;;;25.30;54.60;;;;;;5013804;28;20201;-87
2023/06/06 11:19:04;;;;;;;18.85;17.33;;;25.40;53.60;;;;;;5014294;28;20500;-87
2023/06/06 11:21:33;;;;;;;19.90;18.25;;;24.90;55.50;;;;;;5013794;28;20180;-87
2023/06/06 11:23:59;;;;;;;19.75;18.10;;;25.10;54.80;;;;;;5012613;28;20185;-87
2023/06/06 11:26:26;;;;;;;19.20;17.50;;;24.80;56.00;;;;;;5012602;28;20172;-87
2023/06/06 11:28:54;;;;;;;18.80;17.08;;;24.90;56.10;;;;;;5012566;28;20260;-87
2023/06/06 11:31:20;;;;;;;19.02;17.00;;;25.20;55.30;;;;;;5012521;28;20264;-87
2023/06/06 11:33:46;;;;;;;18.98;17.50;;;24.70;55.70;;;;;;5012443;28;20189;-87
2023/06/06 11:36:12;;;;;;;19.10;17.40;;;24.70;55.90;;;;;;5013686;28;20208;-88
2023/06/06 11:38:44;;;;;;;20.38;18.33;;;25.10;54.00;;;;;;5012551;28;20169;-87
2023/06/06 11:41:10;;;;;;;18.67;16.77;;;25.30;53.90;;;;;;5012405;28;20670;-87
2023/06/06 11:43:36;;;;;;;20.08;18.10;;;25.30;53.90;;;;;;5012315;28;20280;-87
2023/06/06 11:46:05;;;;;;;19.85;18.13;;;25.20;52.40;;;;;;5012321;28;20184;-87
2023/06/06 11:48:31;;;;;;;19.67;17.85;;;25.40;53.10;;;;;;5012382;28;20200;-87
2023/06/06 11:50:57;;;;;;;18.63;16.77;;;24.60;55.10;;;;;;5012235;28;20220;-87
2023/06/06 11:53:29;;;;;;;18.10;16.48;;;24.70;56.00;;;;;;5013379;28;20578;-87
2023/06/06 11:55:55;;;;;;;19.00;17.27;;;25.20;52.20;;;;;;5013384;28;20280;-87
2023/06/06 11:58:21;;;;;;;18.52;16.73;;;25.20;53.50;;;;;;5011372;28;20197;-87
2023/06/06 12:00:47;;;;;;;17.70;15.90;;;25.20;54.00;;;;;;5013467;28;20668;-87
2023/06/06 12:03:18;;;;;;;18.15;16.60;;;25.30;52.10;;;;;;5012021;28;20197;-87
2023/06/06 12:05:43;;;;;;;17.95;16.48;;;25.40;52.30;;;;;;5012173;28;20555;-87
2023/06/06 12:08:09;;;;;;;18.08;16.25;;;25.60;52.10;;;;;;5012162;28;20219;-87
2023/06/06 12:10:34;;;;;;;17.20;15.80;;;25.70;51.90;;;;;;5013242;28;20177;-88
2023/06/06 12:13:00;;;;;;;17.58;16.17;;;25.90;51.10;;;;;;5011866;28;20340;-87
2023/06/06 12:15:48;;;;;;;16.13;14.88;;;26.30;49.30;;;;;;5013280;28;20263;-88
2023/06/06 12:18:14;;;;;;;18.38;16.63;;;25.90;51.00;;;;;;5012715;28;20223;-87
2023/06/06 12:20:39;;;;;;;16.65;15.20;;;25.40;52.20;;;;;;5012071;28;20268;-87
2023/06/06 12:23:05;;;;;;;17.70;15.80;;;25.70;50.50;;;;;;5011915;28;20195;-87
2023/06/06 12:25:30;;;;;;;17.27;15.68;;;25.40;50.50;;;;;;5012206;28;20232;-88
2023/06/06 12:28:10;;;;;;;16.92;15.38;;;25.30;50.90;;;;;;5011959;28;20551;-87